CheckWX is a tool to help pilots better visualize weather data.  It is not intended as a substitute for an official pre-flight weather briefing.

01:25:45 UTC

PAAQ METAR
Palmer Buddy Woods Municipal Airport
Palmer, Alaska, USA
Current

33 mins ago

PAAQ 220053Z 00000KT 1 1/4SM -SN BR OVC034 M09/M11 A2947 RMK AO2 SLP984 P0000 T10891106
Observed
Jan-22 @ 00:53 UTC
Visibility
1 1/4 SM
Flight Rules
IFR
Conditions
Light Snow, Mist
Cloud Levels
  • Overcast at 3,400' AGL
Temperature
-9°C / 16°F
Dewpoint
-11°C / 12°F
Humidity
86%
Altimeter
29.47" Hg
Pressure
998.02 hPa
Current Rain
0.01"
Previous

46 mins ago

PAAQ 220040Z 00000KT 2SM -SN BR OVC034 M09/M11 A2947 RMK AO2 P0000 T10891111
Observed
Jan-22 @ 00:40 UTC
Visibility
2 SM
Flight Rules
IFR
Conditions
Light Snow, Mist
Cloud Levels
  • Overcast at 3,400' AGL
Temperature
-9°C / 16°F
Dewpoint
-11°C / 12°F
Humidity
86%
Altimeter
29.47" Hg
Pressure
998.02 hPa
Current Rain
0.01"
Previous

2 hours ago

PAAQ 212350Z 00000KT 1 3/4SM -SN BR OVC036 M09/M11 A2946 RMK AO2 SNB15 SLP983 P0000 60000 I6000 T10891111 11089 21128 58003
Observed
Jan-21 @ 23:50 UTC
Visibility
1 3/4 SM
Flight Rules
IFR
Conditions
Light Snow, Mist
Cloud Levels
  • Overcast at 3,600' AGL
Temperature
-9°C / 16°F
Dewpoint
-11°C / 12°F
Humidity
86%
Altimeter
29.46" Hg
Pressure
997.62 hPa
Current Rain
0.01"